Time;durP1;ratioP1;P1;durP2;ratioP2;P2;SDS_P1;SDS_P2;PMS_P1;PMS_P2;Temp;Humidity;BMP_temperature;BMP_pressure;BME280_temperature;BME280_humidity;BME280_pressure;Samples;Min_cycle;Max_cycle;Signal;HPM_P1;HPM_P2
2023/02/21 02:17:46;;;;;;;2.20;1.20;;;;;;;8.08;100.00;99595.05;220507;1267;138316;-91
2023/02/21 02:30:29;;;;;;;3.80;1.60;;;;;;;8.14;100.00;99590.80;220462;1267;138231;-92
2023/02/21 02:36:35;;;;;;;2.80;1.40;;;;;;;8.13;100.00;99592.75;221194;1270;107323;-94
2023/02/21 02:42:42;;;;;;;2.00;1.00;;;;;;;8.11;100.00;99588.66;221090;1270;138021;-95
2023/02/21 02:48:43;;;;;;;3.00;1.30;;;;;;;8.10;100.00;99593.73;220442;1269;138695;-93
2023/02/21 02:54:45;;;;;;;2.50;1.30;;;;;;;8.11;100.00;99605.41;221082;1268;106312;-92
2023/02/21 03:06:45;;;;;;;;;;;;;;;;;;;;;
2023/02/21 03:13:15;;;;;;;1.80;0.30;;;;;;;8.04;100.00;99642.79;219364;1271;139372;-92
2023/02/21 03:19:19;;;;;;;0.60;0.30;;;;;;;7.95;100.00;99641.14;219000;1268;138161;-90
2023/02/21 03:25:26;;;;;;;0.80;0.20;;;;;;;7.88;100.00;99644.52;219343;1271;96606;-89
2023/02/21 03:31:27;;;;;;;2.00;0.20;;;;;;;7.79;100.00;99634.66;218687;1267;138148;-87
2023/02/21 03:37:28;;;;;;;2.10;0.40;;;;;;;7.71;100.00;99628.70;218764;1268;138257;-88
2023/02/21 03:43:29;;;;;;;1.10;0.40;;;;;;;7.62;100.00;99645.29;219389;1268;96612;-88
2023/02/21 03:49:28;;;;;;;;;;;;;;;;;;;;;
2023/02/21 03:55:31;;;;;;;1.30;0.40;;;;;;;7.45;100.00;99655.91;219370;1271;97778;-87
2023/02/21 04:01:32;;;;;;;1.20;0.30;;;;;;;7.37;100.00;99638.21;218861;1271;137931;-87
2023/02/21 04:07:34;;;;;;;2.00;0.30;;;;;;;7.31;100.00;99641.73;218917;1268;138363;-88
2023/02/21 04:13:35;;;;;;;3.50;0.30;;;;;;;7.23;100.00;99643.77;219195;1268;138560;-87
2023/02/21 04:19:36;;;;;;;1.70;0.30;;;;;;;7.15;100.00;99645.92;218706;1268;138146;-87
2023/02/21 04:25:37;;;;;;;3.00;0.30;;;;;;;7.08;100.00;99651.46;219204;1267;138642;-86
2023/02/21 04:31:38;;;;;;;1.80;0.50;;;;;;;7.04;100.00;99655.64;218701;1268;138572;-88
2023/02/21 04:37:38;;;;;;;;;;;;;;;;;;;;;
2023/02/21 04:43:40;;;;;;;5.70;0.40;;;;;;;6.95;100.00;99651.30;218900;1271;138058;-89
2023/02/21 04:49:40;;;;;;;7.20;0.80;;;;;;;6.90;100.00;99655.23;218617;1267;138231;-87
2023/02/21 04:55:42;;;;;;;2.90;0.70;;;;;;;6.85;100.00;99659.94;218845;1268;137960;-87
2023/02/21 05:01:43;;;;;;;4.60;1.60;;;;;;;6.82;100.00;99671.06;218417;1267;219656;-87
2023/02/21 05:13:39;;;;;;;2.40;0.80;;;;;;;6.71;100.00;99668.79;215146;1268;5386319;-88
2023/02/21 05:19:42;;;;;;;4.00;1.00;;;;;;;6.67;100.00;99666.63;218625;1268;138314;-89
2023/02/21 05:25:44;;;;;;;9.60;1.30;;;;;;;6.63;100.00;99660.80;219439;1271;138447;-86
2023/02/21 05:31:45;;;;;;;6.20;1.40;;;;;;;6.61;100.00;99671.69;218611;1271;138158;-86
2023/02/21 05:37:42;;;;;;;;;;;;;;;;;;;;;
2023/02/21 05:43:37;;;;;;;;;;;;;;;;;;;;;
2023/02/21 05:49:39;;;;;;;7.80;1.80;;;;;;;6.46;100.00;99699.75;218392;1271;138213;-87
2023/02/21 05:55:40;;;;;;;6.10;1.30;;;;;;;6.45;100.00;99717.29;219264;1267;137788;-88
2023/02/21 06:01:41;;;;;;;5.30;0.80;;;;;;;6.45;100.00;99723.24;218938;1268;138440;-89
2023/02/21 06:07:42;;;;;;;5.40;1.30;;;;;;;6.46;100.00;99728.41;218999;1267;138479;-87
2023/02/21 06:13:43;;;;;;;8.50;1.30;;;;;;;6.48;100.00;99731.00;219309;1268;137894;-88
2023/02/21 06:19:44;;;;;;;9.40;1.30;;;;;;;6.50;100.00;99741.42;218826;1267;138465;-87
2023/02/21 06:25:45;;;;;;;4.10;1.00;;;;;;;6.56;100.00;99744.73;219411;1267;137889;-83
2023/02/21 06:31:47;;;;;;;10.50;1.80;;;;;;;6.58;100.00;99751.31;219017;1268;139281;-83
2023/02/21 06:37:48;;;;;;;11.00;2.80;;;;;;;6.58;100.00;99756.63;219490;1269;138891;-84
2023/02/21 06:43:42;;;;;;;11.40;3.50;;;;;;;6.61;100.00;99773.39;220045;1269;111815;-84
2023/02/21 06:49:32;;;;;;;9.80;1.90;;;;;;;6.64;100.00;99785.95;219634;1271;138448;-85
2023/02/21 06:55:31;;;;;;;11.10;3.10;;;;;;;6.65;100.00;99808.30;221996;1267;138001;-86
2023/02/21 07:01:22;;;;;;;17.00;4.00;;;;;;;6.66;100.00;99808.09;220171;1268;138361;-84
2023/02/21 07:13:21;;;;;;;10.50;2.20;;;;;;;6.72;100.00;99830.30;220752;1268;138177;-84
2023/02/21 07:19:22;;;;;;;13.80;2.00;;;;;;;6.77;100.00;99848.11;219296;1270;138491;-85
2023/02/21 07:25:24;;;;;;;7.80;1.70;;;;;;;6.82;100.00;99849.84;219991;1269;138817;-84
2023/02/21 07:31:25;;;;;;;10.30;2.60;;;;;;;6.86;100.00;99847.63;219243;1271;137984;-84
2023/02/21 07:49:28;;;;;;;18.00;3.90;;;;;;;6.97;100.00;99875.34;219520;1269;138471;-84
2023/02/21 08:01:31;;;;;;;16.00;2.80;;;;;;;7.00;100.00;99879.05;219298;1268;138711;-83
2023/02/21 08:07:32;;;;;;;18.00;3.70;;;;;;;7.02;99.93;99887.52;219083;1268;138676;-84
2023/02/21 08:13:33;;;;;;;8.20;1.90;;;;;;;7.06;99.61;99898.30;219804;1269;138545;-85
2023/02/21 08:19:34;;;;;;;13.60;2.30;;;;;;;7.10;98.50;99905.16;219411;1268;138501;-86
2023/02/21 08:25:35;;;;;;;12.80;2.00;;;;;;;7.11;98.23;99915.52;220586;1268;138068;-84
2023/02/21 08:37:44;;;;;;;11.70;2.30;;;;;;;7.15;97.08;99928.16;219750;1268;138534;-86
2023/02/21 08:43:39;;;;;;;13.10;2.00;;;;;;;7.17;96.92;99935.70;220285;1269;138142;-84
2023/02/21 08:49:41;;;;;;;12.70;1.90;;;;;;;7.16;96.69;99946.94;219260;1269;138658;-83
2023/02/21 09:01:42;;;;;;;12.80;2.20;;;;;;;7.18;96.14;99951.75;219137;1271;138046;-84
2023/02/21 09:13:44;;;;;;;20.40;3.30;;;;;;;7.19;95.43;99960.60;219973;1268;138677;-84
2023/02/21 09:19:44;;;;;;;;;;;;;;;;;;;;;
2023/02/21 09:25:47;;;;;;;11.90;2.80;;;;;;;7.21;95.19;99988.86;219970;1271;138268;-84
2023/02/21 09:31:47;;;;;;;12.20;2.10;;;;;;;7.21;94.86;99996.28;219397;1269;138670;-83
2023/02/21 09:37:49;;;;;;;11.60;3.00;;;;;;;7.21;94.50;100000.35;222816;1268;138389;-85
2023/02/21 09:43:50;;;;;;;;;;;;;;;;;;;;;
2023/02/21 09:49:53;;;;;;;18.50;2.60;;;;;;;7.23;94.10;100021.02;222383;1269;138933;-85
2023/02/21 09:55:49;;;;;;;12.60;2.70;;;;;;;7.27;94.51;100024.31;219822;1271;109507;-84
2023/02/21 10:07:46;;;;;;;17.90;3.10;;;;;;;7.29;94.12;100029.90;219215;1271;138571;-84
2023/02/21 10:14:02;;;;;;;14.80;3.50;;;;;;;7.32;94.25;100039.08;223462;1268;138465;-84
2023/02/21 10:20:22;;;;;;;25.10;4.90;;;;;;;7.34;93.48;100050.39;220685;1268;138296;-83
2023/02/21 10:26:23;;;;;;;22.50;3.80;;;;;;;7.37;93.43;100049.42;220028;1269;110633;-85
2023/02/21 10:32:30;;;;;;;20.80;3.10;;;;;;;7.39;93.24;100057.91;220351;1268;137579;-84
2023/02/21 10:38:35;;;;;;;;;;;;;;;;;;;;;
2023/02/21 10:44:21;;;;;;;15.20;3.40;;;;;;;7.50;92.98;100065.85;219865;1269;109537;-83
2023/02/21 10:50:24;;;;;;;22.90;4.60;;;;;;;7.58;92.92;100063.40;219863;1269;138790;-84
2023/02/21 10:56:09;;;;;;;16.20;3.70;;;;;;;7.69;92.46;100069.63;219254;1271;109948;-82
2023/02/21 11:02:12;;;;;;;20.00;4.20;;;;;;;7.77;91.96;100070.86;219105;1267;139609;-84
2023/02/21 11:08:12;;;;;;;;;;;;;;;;;;;;;
2023/02/21 11:14:18;;;;;;;17.20;3.30;;;;;;;7.89;90.94;100088.66;219248;1269;138357;-85
2023/02/21 11:20:23;;;;;;;18.60;5.00;;;;;;;7.95;90.83;100085.70;218946;1269;138302;-86
2023/02/21 11:26:23;;;;;;;18.00;4.00;;;;;;;8.03;90.80;100089.98;223435;1269;138992;-83
2023/02/21 11:32:24;;;;;;;19.70;4.90;;;;;;;8.11;90.37;100093.77;220216;1271;246545;-85
2023/02/21 11:38:34;;;;;;;17.70;3.20;;;;;;;8.16;89.88;100099.02;219218;1269;138831;-86
2023/02/21 11:44:36;;;;;;;15.80;2.90;;;;;;;8.21;89.81;100103.27;220594;1271;107460;-85
2023/02/21 11:50:49;;;;;;;14.20;2.40;;;;;;;8.29;89.96;100102.95;220071;1271;137882;-85
2023/02/21 11:57:06;;;;;;;;;;;;;;;;;;;;;
2023/02/21 12:03:04;;;;;;;;;;;;;;;;;;;;;
2023/02/21 12:09:08;;;;;;;16.40;3.20;;;;;;;8.51;88.74;100107.59;219653;1271;138561;-84
2023/02/21 12:15:18;;;;;;;13.80;2.20;;;;;;;8.55;87.93;100109.66;219885;1271;96603;-84
2023/02/21 12:21:28;;;;;;;16.20;2.90;;;;;;;8.58;87.53;100111.91;219367;1271;138498;-84
2023/02/21 12:27:32;;;;;;;12.90;2.90;;;;;;;8.58;86.43;100109.17;219883;1268;226842;-85
2023/02/21 12:33:36;;;;;;;18.40;4.30;;;;;;;8.60;87.00;100107.94;221349;1269;96599;-85
2023/02/21 12:39:38;;;;;;;;;;;;;;;;;;;;;
2023/02/21 12:45:55;;;;;;;13.80;2.80;;;;;;;8.76;86.81;100111.05;220607;1271;96582;-85
2023/02/21 12:51:59;;;;;;;19.90;3.90;;;;;;;8.79;85.97;100110.85;223130;1271;139114;-86
2023/02/21 12:58:06;;;;;;;17.80;2.50;;;;;;;8.85;85.81;100116.50;220661;1268;138484;-86
2023/02/21 13:04:24;;;;;;;17.70;3.50;;;;;;;8.88;85.60;100117.48;220249;1269;96579;-86
2023/02/21 13:10:26;;;;;;;16.30;4.20;;;;;;;8.89;85.39;100124.08;218943;1275;138385;-85
2023/02/21 13:16:26;;;;;;;18.90;4.80;;;;;;;8.89;85.01;100129.26;219173;1275;95293;-85
2023/02/21 13:28:58;;;;;;;11.50;2.70;;;;;;;8.90;85.25;100141.73;219866;1271;138654;-84
2023/02/21 13:34:59;;;;;;;13.20;3.20;;;;;;;8.88;84.95;100141.80;219838;1271;138674;-86
2023/02/21 13:41:06;;;;;;;17.40;4.30;;;;;;;8.85;85.52;100143.78;218946;1272;138281;-85
2023/02/21 13:47:26;;;;;;;27.30;8.30;;;;;;;8.80;84.86;100142.23;218943;1271;139531;-84
2023/02/21 13:53:34;;;;;;;;;;;;;;;;;;;;;
2023/02/21 13:59:35;;;;;;;13.70;2.60;;;;;;;8.76;84.77;100148.60;219192;1271;138503;-84
2023/02/21 14:05:48;;;;;;;;;;;;;;;;;;;;;
2023/02/21 14:11:52;;;;;;;19.30;4.70;;;;;;;8.67;84.25;100147.84;218764;1269;138327;-85
2023/02/21 14:17:53;;;;;;;18.80;4.00;;;;;;;8.64;83.83;100157.61;219479;1271;138750;-86
2023/02/21 14:23:38;;;;;;;19.20;3.60;;;;;;;8.58;84.28;100163.30;219603;1269;138973;-86
2023/02/21 14:35:30;;;;;;;22.60;4.60;;;;;;;8.51;84.22;100167.67;220099;1269;137224;-85
2023/02/21 14:59:58;;;;;;;20.60;6.70;;;;;;;8.40;84.61;100190.15;219026;1271;139122;-85
2023/02/21 15:12:07;;;;;;;;;;;;;;;;;;;;;
2023/02/21 15:24:16;;;;;;;;;;;;;;;;;;;;;
2023/02/21 15:30:16;;;;;;;;;;;;;;;;;;;;;
2023/02/21 15:36:19;;;;;;;14.00;3.10;;;;;;;8.14;85.09;100219.45;219772;1267;138344;-84
2023/02/21 15:42:32;;;;;;;18.30;3.30;;;;;;;8.11;85.27;100222.99;219503;1272;139363;-85
2023/02/21 15:48:22;;;;;;;;;;;;;;;;;;;;;
2023/02/21 15:54:23;;;;;;;15.90;4.70;;;;;;;7.98;85.68;100225.73;219885;1271;138925;-85
2023/02/21 16:00:19;;;;;;;;;;;;;;;;;;;;;
2023/02/21 16:06:26;;;;;;;26.20;8.10;;;;;;;7.86;86.69;100238.36;223041;1272;138392;-84
2023/02/21 16:24:40;;;;;;;18.50;4.00;;;;;;;7.70;87.30;100260.03;219226;1274;138434;-84
2023/02/21 16:30:34;;;;;;;24.80;4.30;;;;;;;7.65;87.87;100265.73;218890;1267;138311;-85
2023/02/21 16:36:38;;;;;;;17.90;3.50;;;;;;;7.60;87.91;100272.04;219402;1272;138562;-84
2023/02/21 16:42:37;;;;;;;15.10;4.50;;;;;;;7.54;88.21;100276.39;219458;1269;138396;-85
2023/02/21 16:48:36;;;;;;;28.00;7.80;;;;;;;7.47;88.78;100284.38;218948;1271;138384;-85
2023/02/21 16:54:37;;;;;;;26.10;6.20;;;;;;;7.38;89.18;100295.91;219440;1272;138886;-85
2023/02/21 17:00:38;;;;;;;24.00;5.60;;;;;;;7.29;89.82;100302.27;218894;1272;138466;-85
2023/02/21 17:13:06;;;;;;;23.90;5.60;;;;;;;7.09;90.55;100319.12;215334;1272;5399684;-85
2023/02/21 17:24:52;;;;;;;25.30;7.40;;;;;;;6.93;91.43;100336.16;219434;1272;138473;-85
2023/02/21 17:30:53;;;;;;;33.50;14.50;;;;;;;6.88;91.90;100341.13;218774;1267;138333;-84
2023/02/21 17:37:00;;;;;;;31.80;11.50;;;;;;;6.82;92.16;100346.30;218933;1270;139174;-85
2023/02/21 17:42:59;;;;;;;24.40;6.80;;;;;;;6.76;92.54;100348.94;219275;1272;138504;-84
2023/02/21 17:49:01;;;;;;;29.20;11.30;;;;;;;6.65;92.80;100355.00;218989;1272;138400;-84
2023/02/21 18:01:06;;;;;;;28.80;8.10;;;;;;;6.47;93.07;100363.77;219005;1273;138777;-84
2023/02/21 18:19:03;;;;;;;21.30;7.00;;;;;;;6.28;93.79;100380.18;218850;1271;138496;-84
2023/02/21 18:31:05;;;;;;;25.50;5.60;;;;;;;6.15;94.23;100396.54;218804;1273;138320;-84
2023/02/21 18:37:07;;;;;;;28.40;7.20;;;;;;;6.09;94.44;100404.16;218895;1270;138431;-84
2023/02/21 18:43:08;;;;;;;19.90;5.10;;;;;;;6.02;94.65;100408.48;219431;1269;138414;-84
2023/02/21 18:49:09;;;;;;;25.90;5.80;;;;;;;5.94;94.85;100408.34;218872;1272;138774;-84
2023/02/21 18:55:11;;;;;;;21.00;7.10;;;;;;;5.86;95.18;100409.35;219477;1271;138796;-84
2023/02/21 19:01:12;;;;;;;23.10;5.40;;;;;;;5.79;95.13;100413.73;219508;1273;138496;-85
2023/02/21 19:07:13;;;;;;;26.60;6.30;;;;;;;5.71;95.21;100420.11;218898;1268;138467;-84
2023/02/21 19:13:14;;;;;;;18.90;5.00;;;;;;;5.64;95.62;100418.70;219750;1271;138319;-84
2023/02/21 19:19:15;;;;;;;21.60;5.70;;;;;;;5.57;95.82;100426.45;219110;1270;138972;-84
2023/02/21 19:31:09;;;;;;;;;;;;;;;;;;;;;
2023/02/21 19:37:11;;;;;;;22.70;5.20;;;;;;;5.41;96.47;100441.95;219452;1271;138935;-86
2023/02/21 19:43:12;;;;;;;20.90;5.90;;;;;;;5.40;96.87;100448.76;220831;1269;138500;-85
2023/02/21 19:49:13;;;;;;;;;;;;;;;;;;;;;
2023/02/21 19:55:15;;;;;;;27.60;6.70;;;;;;;5.39;97.18;100463.79;219598;1270;138749;-86
2023/02/21 20:01:15;;;;;;;29.70;8.50;;;;;;;5.39;97.59;100468.48;218974;1272;138372;-87
2023/02/21 20:07:17;;;;;;;31.00;8.40;;;;;;;5.38;97.77;100468.20;218702;1268;138549;-86
2023/02/21 20:13:11;;;;;;;20.60;7.30;;;;;;;5.39;97.63;100471.48;219838;1271;138346;-86
2023/02/21 20:19:12;;;;;;;25.00;7.40;;;;;;;5.40;97.58;100472.95;219168;1272;138504;-85
2023/02/21 20:25:13;;;;;;;25.40;6.20;;;;;;;5.42;97.64;100483.14;219715;1267;138803;-84
2023/02/21 20:37:16;;;;;;;30.60;6.90;;;;;;;5.45;98.02;100489.02;219408;1268;138419;-85
2023/02/21 20:43:16;;;;;;;26.40;5.70;;;;;;;5.47;98.00;100490.72;220151;1267;138307;-85
2023/02/21 20:49:20;;;;;;;18.30;4.90;;;;;;;5.51;97.96;100494.74;219251;1267;138551;-86
2023/02/21 20:55:21;;;;;;;29.50;8.20;;;;;;;5.55;97.97;100497.99;219488;1271;138304;-84
2023/02/21 21:01:20;;;;;;;27.10;7.40;;;;;;;5.58;98.09;100496.55;219181;1269;138973;-84
2023/02/21 21:13:22;;;;;;;25.60;8.30;;;;;;;5.62;98.14;100495.10;219708;1269;138401;-85
2023/02/21 21:19:33;;;;;;;;;;;;;;;;;;;;;
2023/02/21 21:25:25;;;;;;;35.40;9.90;;;;;;;5.65;98.43;100500.11;219575;1271;139050;-85
2023/02/21 21:37:27;;;;;;;30.10;7.60;;;;;;;5.65;98.27;100503.63;219057;1271;138830;-85
2023/02/21 21:49:54;;;;;;;28.60;8.20;;;;;;;5.58;97.89;100512.84;220191;1269;138582;-86
2023/02/21 21:55:30;;;;;;;31.30;8.30;;;;;;;5.47;97.79;100517.14;220592;1268;138325;-84
2023/02/21 22:01:31;;;;;;;22.80;7.90;;;;;;;5.34;97.85;100520.48;219699;1268;138842;-85
2023/02/21 22:37:42;;;;;;;27.30;9.10;;;;;;;4.31;99.25;100546.70;221847;1267;138562;-85
2023/02/21 22:43:40;;;;;;;31.10;10.90;;;;;;;4.10;99.01;100547.12;219950;1271;138326;-90
2023/02/21 22:49:41;;;;;;;25.70;8.90;;;;;;;3.93;99.91;100553.24;219124;1271;138964;-90
2023/02/21 23:07:50;;;;;;;26.80;9.70;;;;;;;3.75;100.00;100551.91;219092;1271;138874;-91
2023/02/21 23:13:53;;;;;;;28.90;9.70;;;;;;;3.71;100.00;100557.96;219546;1269;138905;-89
2023/02/21 23:19:54;;;;;;;30.20;10.30;;;;;;;3.62;100.00;100560.48;219033;1271;138823;-90
2023/02/21 23:25:57;;;;;;;33.80;9.20;;;;;;;3.55;100.00;100561.72;219440;1268;139123;-90
2023/02/21 23:32:07;;;;;;;33.00;10.40;;;;;;;3.44;100.00;100569.61;219134;1268;138499;-90
2023/02/21 23:37:58;;;;;;;23.50;8.20;;;;;;;3.39;100.00;100576.31;219674;1271;138731;-90
2023/02/21 23:43:59;;;;;;;22.60;8.20;;;;;;;3.37;100.00;100582.15;219337;1268;138463;-91
